Aylett, Virginia
Current Conditions -  °F | °C
As of 12:55 PM on Saturday 20 Dec 2014 (Local Time) from KXSA Reporting Station
Scattered Clouds Scattered Clouds  
Wind Chill: 37°   Ceiling: Unl
Heat Index: 37°   Visibility: 10mi
Dew Point: 21°   Wind: 0mph
Humidity: 54%   Direction: NA
Pressure: 30.29"   Gusts: NA
Location:  37.79°N, 77.11°W
Report Text: KXSA 201755Z AUTO 00000KT 10SM SCT090 SCT110 03/M06 A3029 RMK AO2 T00251060 10025 21040
Loading
Personal Weather Stations






























Interactive Weather Map New forecast layout! Learn more

10-Day Weather Forecast

Advertisements
Track Severe Weather on mobile